createdAt,value
2023-03-04T00:00:05.599Z,-0.11
2023-03-04T00:02:05.953Z,-0.15
2023-03-04T00:04:06.279Z,-0.13
2023-03-04T00:06:06.531Z,-0.15
2023-03-04T00:08:06.875Z,-0.11
2023-03-04T00:10:07.320Z,-0.08
2023-03-04T00:12:07.622Z,-0.11
2023-03-04T00:14:07.896Z,-0.20
2023-03-04T00:16:08.227Z,-0.31
2023-03-04T00:18:08.505Z,-0.46
2023-03-04T00:20:08.804Z,-0.52
2023-03-04T00:22:09.107Z,-0.56
2023-03-04T00:24:09.400Z,-0.59
2023-03-04T00:26:09.741Z,-0.57
2023-03-04T00:28:10.006Z,-0.61
2023-03-04T00:30:10.308Z,-0.50
2023-03-04T00:32:10.673Z,-0.46
2023-03-04T00:34:10.997Z,-0.43
2023-03-04T00:36:11.360Z,-0.34
2023-03-04T00:38:11.655Z,-0.32
2023-03-04T00:40:16.806Z,-0.36
2023-03-04T00:42:17.090Z,-0.35
2023-03-04T00:44:17.417Z,-0.31
2023-03-04T00:46:17.772Z,-0.38
2023-03-04T00:48:18.050Z,-0.36
2023-03-04T00:50:19.069Z,-0.39
2023-03-04T00:52:19.360Z,-0.41
2023-03-04T00:54:19.615Z,-0.39
2023-03-04T00:56:19.939Z,-0.49
2023-03-04T00:58:20.257Z,-0.49
2023-03-04T01:00:20.556Z,-0.53
2023-03-04T01:02:21.635Z,-0.53
2023-03-04T01:04:21.979Z,-0.62
2023-03-04T01:06:22.226Z,-0.74
2023-03-04T01:08:22.539Z,-0.77
2023-03-04T01:10:23.560Z,-0.83
2023-03-04T01:12:23.855Z,-0.85
2023-03-04T01:14:24.169Z,-0.91
2023-03-04T01:16:24.569Z,-0.91
2023-03-04T01:18:24.858Z,-0.93
2023-03-04T01:20:25.153Z,-0.90
2023-03-04T01:22:25.465Z,-0.99
2023-03-04T01:24:25.727Z,-0.97
2023-03-04T01:26:26.065Z,-0.97
2023-03-04T01:28:26.349Z,-1.02
2023-03-04T01:30:26.617Z,-1.08
2023-03-04T01:32:26.980Z,-1.12
2023-03-04T01:34:27.293Z,-1.20
2023-03-04T01:36:28.061Z,-1.23
2023-03-04T01:38:28.317Z,-1.27
2023-03-04T01:40:28.634Z,-1.30
2023-03-04T01:42:28.917Z,-1.35
2023-03-04T01:44:29.211Z,-1.44
2023-03-04T01:46:29.587Z,-1.44
2023-03-04T01:48:29.871Z,-1.46
2023-03-04T01:50:30.171Z,-1.51
2023-03-04T01:52:30.476Z,-1.59
2023-03-04T01:54:30.787Z,-1.59
2023-03-04T01:56:31.084Z,-1.61
2023-03-04T01:58:31.341Z,-1.64
2023-03-04T02:00:31.785Z,-1.66
2023-03-04T02:02:32.344Z,-1.69
2023-03-04T02:04:32.753Z,-1.69
2023-03-04T02:06:33.016Z,-1.74
2023-03-04T02:08:33.356Z,-1.72
2023-03-04T02:10:33.648Z,-1.79
2023-03-04T02:12:33.969Z,-1.80
2023-03-04T02:14:34.290Z,-1.86
2023-03-04T02:16:34.553Z,-1.86
2023-03-04T02:18:34.867Z,-1.89
2023-03-04T02:20:35.210Z,-2.00
2023-03-04T02:22:35.485Z,-2.02
2023-03-04T02:24:35.818Z,-2.02
2023-03-04T02:26:36.078Z,-2.07
2023-03-04T02:28:36.347Z,-2.07
2023-03-04T02:30:36.655Z,-2.05
2023-03-04T02:32:36.969Z,-2.10
2023-03-04T02:34:37.230Z,-2.04
2023-03-04T02:36:37.554Z,-2.04
2023-03-04T02:38:37.833Z,-2.07
2023-03-04T02:40:38.229Z,-2.01
2023-03-04T02:42:38.523Z,-2.02
2023-03-04T02:44:38.806Z,-2.05
2023-03-04T02:46:39.161Z,-2.00
2023-03-04T02:48:39.445Z,-2.01
2023-03-04T02:50:39.765Z,-2.04
2023-03-04T02:52:40.042Z,-2.05
2023-03-04T02:54:40.337Z,-2.07
2023-03-04T02:56:40.680Z,-2.05
2023-03-04T02:58:40.937Z,-2.12
2023-03-04T03:00:41.302Z,-2.19
2023-03-04T03:02:42.586Z,-2.19
2023-03-04T03:04:42.888Z,-2.19
2023-03-04T03:06:43.139Z,-2.18
2023-03-04T03:08:43.464Z,-2.21
2023-03-04T03:10:43.793Z,-2.21
2023-03-04T03:12:44.075Z,-2.26
2023-03-04T03:14:44.379Z,-2.25
2023-03-04T03:16:44.722Z,-2.28
2023-03-04T03:18:45.043Z,-2.25
2023-03-04T03:20:45.321Z,-2.30
2023-03-04T03:22:45.594Z,-2.25
2023-03-04T03:24:45.940Z,-2.26
2023-03-04T03:26:46.335Z,-2.40
2023-03-04T03:28:46.640Z,-2.38
2023-03-04T03:30:46.924Z,-2.37
2023-03-04T03:32:47.293Z,-2.41
2023-03-04T03:34:47.591Z,-2.44
2023-03-04T03:36:47.897Z,-2.47
2023-03-04T03:38:48.172Z,-2.56
2023-03-04T03:40:48.514Z,-2.45
2023-03-04T03:42:48.780Z,-2.42
2023-03-04T03:44:49.106Z,-2.34
2023-03-04T03:46:49.380Z,-2.28
2023-03-04T03:48:49.720Z,-2.21
2023-03-04T03:50:50.021Z,-2.16
2023-03-04T03:52:50.348Z,-2.05
2023-03-04T03:54:50.610Z,-2.01
2023-03-04T03:56:50.905Z,-2.15
2023-03-04T03:58:51.191Z,-2.12
2023-03-04T04:00:51.474Z,-2.13
2023-03-04T04:02:51.859Z,-2.12
2023-03-04T04:04:52.122Z,-2.12
2023-03-04T04:06:52.567Z,-2.07
2023-03-04T04:08:52.859Z,-2.01
2023-03-04T04:10:53.227Z,-1.98
2023-03-04T04:12:53.628Z,-1.92
2023-03-04T04:14:53.933Z,-1.89
